createdAt,value
2023-04-24T00:00:15.779Z,54.10
2023-04-24T00:02:45.998Z,54.15
2023-04-24T00:05:12.797Z,54.08
2023-04-24T00:07:39.140Z,54.32
2023-04-24T00:10:05.988Z,54.14
2023-04-24T00:12:32.366Z,54.25
2023-04-24T00:14:58.710Z,54.15
2023-04-24T00:17:25.090Z,54.05
2023-04-24T00:19:52.198Z,54.09
2023-04-24T00:22:18.563Z,54.09
2023-04-24T00:24:44.908Z,54.10
2023-04-24T00:27:11.255Z,54.08
2023-04-24T00:29:37.615Z,54.38
2023-04-24T00:32:04.009Z,54.26
2023-04-24T00:34:33.533Z,54.17
2023-04-24T00:36:59.892Z,54.34
2023-04-24T00:39:26.255Z,54.22
2023-04-24T00:41:53.457Z,54.12
2023-04-24T00:44:19.847Z,54.23
2023-04-24T00:46:46.770Z,54.17
2023-04-24T00:49:13.102Z,54.36
2023-04-24T00:51:39.450Z,54.42
2023-04-24T00:54:06.458Z,54.12
2023-04-24T00:56:32.798Z,54.24
2023-04-24T00:58:59.192Z,54.43
2023-04-24T01:01:25.551Z,54.32
2023-04-24T01:03:52.039Z,54.02
2023-04-24T01:06:19.147Z,54.21
2023-04-24T01:08:45.611Z,54.17
2023-04-24T01:11:11.947Z,54.18
2023-04-24T01:13:38.552Z,54.31
2023-04-24T01:16:04.956Z,54.23
2023-04-24T01:18:31.367Z,54.47
2023-04-24T01:20:58.252Z,54.17
2023-04-24T01:23:24.600Z,54.24
2023-04-24T01:25:52.120Z,54.19
2023-04-24T01:28:18.633Z,54.20
2023-04-24T01:30:45.140Z,54.24
2023-04-24T01:33:11.485Z,54.24
2023-04-24T01:35:40.982Z,54.24
2023-04-24T01:38:07.410Z,54.39
2023-04-24T01:40:33.783Z,54.42
2023-04-24T01:43:00.118Z,54.22
2023-04-24T01:45:26.445Z,54.17
2023-04-24T01:47:52.928Z,54.15
2023-04-24T01:50:19.317Z,54.27
2023-04-24T01:52:45.651Z,54.27
2023-04-24T01:55:11.993Z,54.18
2023-04-24T01:57:38.342Z,54.27
2023-04-24T02:00:05.649Z,54.30
2023-04-24T02:02:40.276Z,54.52
2023-04-24T02:05:07.183Z,54.31
2023-04-24T02:07:36.190Z,54.14
2023-04-24T02:10:02.836Z,54.30
2023-04-24T02:12:29.186Z,54.35
2023-04-24T02:14:55.513Z,54.38
2023-04-24T02:17:22.186Z,54.51
2023-04-24T02:19:48.550Z,54.44
2023-04-24T02:22:14.880Z,54.21
2023-04-24T02:24:41.222Z,54.20
2023-04-24T02:27:07.586Z,54.16
2023-04-24T02:29:33.947Z,54.12
2023-04-24T02:32:00.404Z,54.17
2023-04-24T02:34:26.763Z,54.45
2023-04-24T02:36:54.884Z,54.34
2023-04-24T02:39:21.284Z,54.13
2023-04-24T02:41:47.625Z,54.11
2023-04-24T02:44:18.155Z,54.16
2023-04-24T02:46:44.588Z,54.20
2023-04-24T02:49:12.866Z,54.10
2023-04-24T02:51:41.987Z,54.08
2023-04-24T02:54:11.896Z,53.93
2023-04-24T02:56:38.381Z,53.85
2023-04-24T02:59:07.382Z,53.74
2023-04-24T03:01:34.606Z,53.73
2023-04-24T03:04:01.261Z,53.72
2023-04-24T03:06:28.070Z,53.83
2023-04-24T03:08:54.946Z,53.92
2023-04-24T03:11:21.429Z,53.81
2023-04-24T03:13:47.768Z,53.71
2023-04-24T03:16:14.274Z,53.66
2023-04-24T03:18:40.692Z,53.73
2023-04-24T03:21:08.422Z,53.64
2023-04-24T03:23:35.280Z,53.94
2023-04-24T03:26:03.231Z,53.92
2023-04-24T03:28:30.360Z,53.95
2023-04-24T03:31:03.813Z,54.01
2023-04-24T03:33:33.705Z,54.09
2023-04-24T03:36:01.472Z,54.28
2023-04-24T03:38:35.590Z,54.21
2023-04-24T03:41:34.333Z,54.38
2023-04-24T03:44:07.758Z,54.37
2023-04-24T03:46:34.928Z,54.32
2023-04-24T03:49:02.322Z,54.37
2023-04-24T03:51:33.040Z,54.27
2023-04-24T03:54:11.321Z,54.36
2023-04-24T03:56:39.847Z,54.36
2023-04-24T03:59:06.692Z,54.24
2023-04-24T04:01:37.537Z,54.37
2023-04-24T04:04:09.957Z,54.52
2023-04-24T04:06:38.078Z,54.42
2023-04-24T04:09:05.213Z,54.38
2023-04-24T04:11:31.600Z,54.54
2023-04-24T04:13:57.990Z,54.18
2023-04-24T04:16:25.414Z,54.65
2023-04-24T04:18:56.704Z,54.35
2023-04-24T04:21:23.113Z,54.40
2023-04-24T04:23:54.357Z,54.63
2023-04-24T04:26:27.042Z,54.39
2023-04-24T04:29:04.969Z,54.36
2023-04-24T04:31:33.535Z,54.33
2023-04-24T04:34:03.737Z,54.36
2023-04-24T04:36:32.271Z,54.52
2023-04-24T04:39:05.758Z,54.48
2023-04-24T04:41:49.936Z,54.45
2023-04-24T04:44:18.251Z,54.58
2023-04-24T04:46:45.294Z,54.56
2023-04-24T04:49:26.528Z,54.67
2023-04-24T04:51:52.948Z,54.76
2023-04-24T04:54:20.395Z,54.85
2023-04-24T04:56:46.788Z,54.76
2023-04-24T04:59:13.397Z,54.55
2023-04-24T05:01:39.913Z,54.47
2023-04-24T05:04:07.994Z,54.64
2023-04-24T05:06:34.501Z,54.42
2023-04-24T05:09:00.859Z,54.40
2023-04-24T05:11:34.941Z,54.63
2023-04-24T05:14:02.332Z,54.44
2023-04-24T05:16:39.909Z,54.67
2023-04-24T05:19:07.178Z,54.63
2023-04-24T05:21:40.399Z,54.64
2023-04-24T05:24:07.882Z,54.74
2023-04-24T05:26:54.556Z,54.74
2023-04-24T05:29:27.181Z,54.98
2023-04-24T05:31:54.108Z,54.72
2023-04-24T05:34:20.758Z,54.95
2023-04-24T05:36:51.612Z,54.95
2023-04-24T05:39:17.992Z,54.88
2023-04-24T05:41:44.348Z,54.93
2023-04-24T05:44:10.774Z,54.94
2023-04-24T05:46:37.140Z,54.84
2023-04-24T05:49:03.686Z,54.56
2023-04-24T05:51:32.616Z,56.49
2023-04-24T05:53:59.332Z,56.70
2023-04-24T05:56:26.468Z,55.99
2023-04-24T05:58:52.851Z,54.92
2023-04-24T06:01:19.334Z,55.03
2023-04-24T06:03:51.070Z,54.87
2023-04-24T06:06:17.551Z,54.97
2023-04-24T06:08:45.083Z,54.80
2023-04-24T06:11:11.458Z,54.72
2023-04-24T06:13:38.798Z,55.28
2023-04-24T06:16:34.541Z,54.40
2023-04-24T06:19:06.737Z,54.31
2023-04-24T06:21:33.361Z,54.08
2023-04-24T06:23:59.766Z,53.70
2023-04-24T06:26:27.360Z,53.61
2023-04-24T06:28:54.802Z,53.87
2023-04-24T06:31:21.282Z,54.21
2023-04-24T06:33:47.657Z,54.57
2023-04-24T06:36:14.049Z,54.75
2023-04-24T06:38:40.422Z,54.34
2023-04-24T06:41:06.897Z,53.71
2023-04-24T06:43:33.247Z,52.72
2023-04-24T06:45:59.778Z,52.55
2023-04-24T06:48:26.738Z,52.91
2023-04-24T06:50:53.117Z,52.20
2023-04-24T06:53:19.462Z,52.02
2023-04-24T06:55:47.032Z,51.61
2023-04-24T06:58:13.397Z,50.68
2023-04-24T07:00:39.731Z,50.99
2023-04-24T07:03:06.790Z,50.78
2023-04-24T07:05:34.694Z,49.74
2023-04-24T07:08:01.323Z,49.58
2023-04-24T07:10:29.469Z,49.69
2023-04-24T07:12:57.117Z,49.72
2023-04-24T07:15:24.312Z,49.67
2023-04-24T07:17:50.791Z,48.88
2023-04-24T07:20:17.147Z,48.30
2023-04-24T07:22:43.639Z,48.67
2023-04-24T07:25:10.032Z,48.11
2023-04-24T07:27:37.154Z,48.17
2023-04-24T07:30:05.010Z,48.48
2023-04-24T07:32:31.364Z,48.14
2023-04-24T07:34:57.709Z,47.73
2023-04-24T07:37:24.054Z,47.94
2023-04-24T07:39:50.415Z,47.68
2023-04-24T07:42:16.860Z,47.42
2023-04-24T07:44:43.239Z,47.53
2023-04-24T07:47:09.567Z,46.67
2023-04-24T07:49:36.026Z,46.75
2023-04-24T07:52:03.424Z,46.17
2023-04-24T07:54:29.879Z,46.13
2023-04-24T07:56:56.286Z,46.85
2023-04-24T07:59:22.682Z,46.32
2023-04-24T08:01:49.020Z,46.48
2023-04-24T08:04:15.633Z,46.79
2023-04-24T08:06:42.036Z,46.04
2023-04-24T08:09:08.386Z,45.60
2023-04-24T08:11:34.740Z,44.97
2023-04-24T08:14:01.099Z,44.97
2023-04-24T08:16:27.495Z,44.93
2023-04-24T08:18:53.892Z,45.02
2023-04-24T08:21:21.540Z,45.13
2023-04-24T08:23:47.907Z,45.51
2023-04-24T08:26:14.320Z,45.44
2023-04-24T08:28:40.721Z,44.90
2023-04-24T08:31:07.058Z,44.80
2023-04-24T08:33:35.608Z,44.58
2023-04-24T08:36:05.635Z,44.61
2023-04-24T08:38:32.145Z,44.51
2023-04-24T08:40:59.203Z,44.69
2023-04-24T08:43:25.535Z,44.63
2023-04-24T08:45:51.878Z,44.73
2023-04-24T08:48:29.738Z,44.99
2023-04-24T08:50:57.505Z,45.14
2023-04-24T08:53:23.849Z,45.02
2023-04-24T08:55:50.225Z,45.28
2023-04-24T08:58:19.697Z,45.27
2023-04-24T09:00:48.100Z,45.36
2023-04-24T09:03:15.620Z,45.63
2023-04-24T09:05:46.594Z,45.58
2023-04-24T09:08:14.589Z,44.91
2023-04-24T09:10:40.983Z,44.98
2023-04-24T09:13:10.036Z,45.20
2023-04-24T09:15:36.543Z,45.38
2023-04-24T09:18:03.092Z,45.90
2023-04-24T09:20:29.437Z,46.41
2023-04-24T09:22:58.700Z,46.07
2023-04-24T09:25:34.876Z,45.77
2023-04-24T09:28:02.077Z,46.33
2023-04-24T09:30:28.705Z,46.39
2023-04-24T09:33:10.571Z,46.13
2023-04-24T09:35:36.918Z,46.05
2023-04-24T09:38:03.267Z,46.32
2023-04-24T09:40:29.609Z,46.52
2023-04-24T09:42:57.585Z,46.50
2023-04-24T09:45:28.314Z,46.43
2023-04-24T09:47:57.541Z,46.51
2023-04-24T09:50:23.886Z,46.50
2023-04-24T09:52:59.914Z,46.60
2023-04-24T09:55:26.394Z,46.89
2023-04-24T09:57:53.107Z,46.85
2023-04-24T10:00:29.173Z,47.09
2023-04-24T10:02:56.081Z,46.79
2023-04-24T10:05:26.304Z,47.01
2023-04-24T10:07:52.631Z,47.04
2023-04-24T10:10:19.017Z,47.32
2023-04-24T10:12:45.440Z,47.14
2023-04-24T10:15:13.351Z,47.19
2023-04-24T10:17:40.108Z,47.23
2023-04-24T10:20:07.461Z,47.54
2023-04-24T10:22:33.799Z,48.02
2023-04-24T10:25:00.174Z,47.90
2023-04-24T10:27:26.926Z,47.80
2023-04-24T10:29:53.269Z,47.82
2023-04-24T10:32:19.694Z,48.20
2023-04-24T10:34:46.140Z,48.63
2023-04-24T10:37:14.356Z,48.81
2023-04-24T10:39:41.752Z,48.93
2023-04-24T10:42:17.308Z,48.79
2023-04-24T10:44:43.708Z,48.78
2023-04-24T10:47:13.616Z,48.91
2023-04-24T10:49:40.016Z,48.74
2023-04-24T10:52:06.652Z,48.62
2023-04-24T10:54:35.927Z,48.41
2023-04-24T10:57:21.380Z,48.74
2023-04-24T10:59:48.105Z,48.49
2023-04-24T11:02:17.488Z,48.43
2023-04-24T11:04:44.256Z,48.44
2023-04-24T11:07:10.773Z,48.55
2023-04-24T11:09:37.475Z,48.45
2023-04-24T11:12:04.892Z,48.53
2023-04-24T11:14:31.242Z,48.73
2023-04-24T11:16:57.676Z,49.09
2023-04-24T11:19:24.936Z,49.41
2023-04-24T11:22:04.083Z,49.40
2023-04-24T11:24:34.208Z,49.31
2023-04-24T11:27:03.655Z,48.75
2023-04-24T11:29:39.677Z,48.89
2023-04-24T11:32:15.727Z,48.63
2023-04-24T11:34:42.246Z,48.74
2023-04-24T11:37:08.923Z,48.88
2023-04-24T11:39:38.298Z,48.91
2023-04-24T11:42:04.840Z,49.06
2023-04-24T11:44:33.046Z,49.02
2023-04-24T11:46:59.575Z,49.07
2023-04-24T11:49:26.801Z,49.06
2023-04-24T11:51:58.499Z,49.46
2023-04-24T11:54:26.254Z,49.72
2023-04-24T11:56:52.595Z,49.74
2023-04-24T11:59:19.363Z,49.62
2023-04-24T12:01:48.549Z,49.64
2023-04-24T12:04:15.339Z,49.60
2023-04-24T12:06:59.470Z,49.39
2023-04-24T12:09:26.275Z,49.05
2023-04-24T12:11:58.288Z,49.08
2023-04-24T12:14:24.932Z,49.76
2023-04-24T12:16:51.375Z,49.58
2023-04-24T12:19:23.958Z,49.58
2023-04-24T12:22:00.511Z,49.29
2023-04-24T12:24:26.869Z,49.46
2023-04-24T12:26:54.504Z,49.17
2023-04-24T12:29:21.199Z,49.18
2023-04-24T12:31:47.759Z,49.22
2023-04-24T12:34:21.200Z,49.41
2023-04-24T12:36:47.923Z,49.63
2023-04-24T12:39:20.621Z,49.28
2023-04-24T12:41:58.061Z,49.08
2023-04-24T12:44:35.400Z,49.55
2023-04-24T12:47:02.137Z,49.35
2023-04-24T12:49:28.853Z,48.84
2023-04-24T12:51:55.178Z,49.91
2023-04-24T12:54:21.539Z,49.46
2023-04-24T12:56:47.886Z,49.18
2023-04-24T12:59:14.216Z,48.98
2023-04-24T13:01:40.591Z,49.07
2023-04-24T13:04:07.099Z,49.02
2023-04-24T13:06:34.029Z,49.36
2023-04-24T13:09:00.682Z,49.30
2023-04-24T13:11:27.004Z,49.53
2023-04-24T13:13:55.308Z,49.52
2023-04-24T13:16:21.802Z,49.43
2023-04-24T13:18:48.125Z,49.67
2023-04-24T13:21:14.461Z,49.58
2023-04-24T13:23:42.445Z,49.47
2023-04-24T13:26:09.455Z,50.09
2023-04-24T13:28:35.790Z,49.99
2023-04-24T13:31:02.136Z,49.91
2023-04-24T13:33:28.459Z,49.89
2023-04-24T13:35:54.796Z,50.08
2023-04-24T13:38:22.490Z,50.23
2023-04-24T13:40:48.885Z,50.51
2023-04-24T13:43:15.233Z,50.59
2023-04-24T13:45:41.604Z,50.17
2023-04-24T13:48:09.843Z,50.30
2023-04-24T13:50:36.218Z,50.34
2023-04-24T13:53:03.107Z,50.34
2023-04-24T13:55:29.614Z,50.49
2023-04-24T13:57:56.085Z,50.50
2023-04-24T14:00:22.447Z,50.70
2023-04-24T14:02:49.336Z,50.85
2023-04-24T14:05:16.285Z,50.40
2023-04-24T14:07:43.099Z,50.55
2023-04-24T14:10:09.633Z,50.74
2023-04-24T14:12:36.173Z,50.79
2023-04-24T14:15:02.552Z,50.53
2023-04-24T14:17:28.984Z,50.71
2023-04-24T14:19:57.234Z,50.71
2023-04-24T14:22:23.670Z,50.39
2023-04-24T14:24:50.012Z,50.37
2023-04-24T14:27:16.346Z,50.59
2023-04-24T14:29:42.693Z,50.64
2023-04-24T14:32:09.967Z,50.88
2023-04-24T14:34:36.326Z,50.50
2023-04-24T14:37:02.669Z,50.73
2023-04-24T14:39:29.252Z,50.58
2023-04-24T14:41:56.125Z,50.96
2023-04-24T14:44:22.644Z,50.13
2023-04-24T14:46:49.403Z,49.89
2023-04-24T14:49:15.825Z,49.47
2023-04-24T14:51:43.538Z,49.73
2023-04-24T14:54:09.900Z,49.48
2023-04-24T14:56:36.377Z,50.07
2023-04-24T14:59:03.068Z,50.10
2023-04-24T15:01:29.496Z,50.11
2023-04-24T15:03:56.068Z,50.29
2023-04-24T15:06:22.553Z,50.19
2023-04-24T15:08:50.390Z,50.30
2023-04-24T15:11:17.123Z,50.03
2023-04-24T15:13:43.720Z,50.00
2023-04-24T15:16:10.233Z,49.97
2023-04-24T15:18:36.636Z,50.58
2023-04-24T15:21:02.998Z,51.14
2023-04-24T15:23:29.355Z,51.24
2023-04-24T15:25:55.727Z,50.92
2023-04-24T15:28:22.688Z,51.00
2023-04-24T15:30:49.030Z,51.38
2023-04-24T15:33:15.499Z,51.03
2023-04-24T15:35:41.964Z,50.93
2023-04-24T15:38:08.782Z,50.52
2023-04-24T15:40:35.285Z,50.73
2023-04-24T15:43:01.680Z,50.92
2023-04-24T15:45:28.020Z,50.96
2023-04-24T15:47:54.462Z,50.80
2023-04-24T15:50:22.521Z,51.18
2023-04-24T15:52:48.924Z,50.71
2023-04-24T15:55:15.279Z,50.46
2023-04-24T15:57:41.646Z,51.22
2023-04-24T16:00:08.716Z,51.79
2023-04-24T16:02:41.216Z,51.91
2023-04-24T16:05:08.449Z,51.54
2023-04-24T16:07:34.791Z,51.86
2023-04-24T16:10:01.132Z,51.89
2023-04-24T16:12:28.397Z,52.06
2023-04-24T16:14:55.138Z,51.91
2023-04-24T16:17:21.725Z,51.62
2023-04-24T16:19:48.066Z,46.65
2023-04-24T16:22:14.437Z,47.60
2023-04-24T16:24:40.781Z,49.19
2023-04-24T16:27:07.114Z,50.04
2023-04-24T16:29:33.496Z,50.33
2023-04-24T16:31:59.852Z,49.27
2023-04-24T16:34:26.269Z,49.78
2023-04-24T16:36:52.655Z,50.45
2023-04-24T16:39:19.018Z,50.53
2023-04-24T16:41:45.354Z,50.84
2023-04-24T16:44:11.724Z,50.55
2023-04-24T16:46:38.131Z,50.51
2023-04-24T16:49:04.507Z,50.42
2023-04-24T16:51:31.773Z,50.16
2023-04-24T16:53:58.133Z,50.49
2023-04-24T16:56:24.459Z,50.31
2023-04-24T16:58:51.071Z,50.50
2023-04-24T17:01:17.780Z,50.64
2023-04-24T17:03:44.456Z,50.86
2023-04-24T17:06:11.155Z,50.89
2023-04-24T17:08:37.564Z,50.40
2023-04-24T17:11:04.064Z,50.34
2023-04-24T17:13:30.449Z,50.41
2023-04-24T17:15:56.794Z,50.90
2023-04-24T17:18:24.254Z,50.55
2023-04-24T17:20:51.460Z,50.32
2023-04-24T17:23:17.943Z,46.56
2023-04-24T17:25:44.292Z,46.42
2023-04-24T17:28:16.061Z,46.75
2023-04-24T17:30:42.416Z,47.47
2023-04-24T17:33:08.796Z,45.57
2023-04-24T17:35:35.159Z,46.06
2023-04-24T17:38:01.480Z,45.63
2023-04-24T17:40:27.839Z,45.39
2023-04-24T17:42:54.514Z,45.06
2023-04-24T17:45:20.922Z,45.36
2023-04-24T17:47:47.329Z,44.99
2023-04-24T17:50:14.137Z,44.55
2023-04-24T17:52:40.524Z,44.82
2023-04-24T17:55:06.930Z,45.03
2023-04-24T17:57:33.273Z,45.28
2023-04-24T18:00:00.621Z,46.19
2023-04-24T18:02:27.125Z,46.65
2023-04-24T18:04:55.276Z,47.16
2023-04-24T18:07:21.903Z,47.82
2023-04-24T18:09:48.238Z,48.62
2023-04-24T18:12:14.622Z,48.78
2023-04-24T18:14:40.979Z,48.67
2023-04-24T18:17:07.681Z,48.46
2023-04-24T18:19:34.074Z,48.88
2023-04-24T18:22:00.526Z,49.12
2023-04-24T18:24:27.163Z,48.97
2023-04-24T18:26:53.514Z,49.14
2023-04-24T18:29:19.861Z,49.39
2023-04-24T18:31:46.281Z,49.35
2023-04-24T18:34:12.660Z,49.67
2023-04-24T18:36:39.068Z,49.82
2023-04-24T18:39:05.498Z,50.07
2023-04-24T18:41:31.886Z,50.12
2023-04-24T18:43:59.158Z,50.13
2023-04-24T18:46:25.838Z,50.47
2023-04-24T18:48:52.368Z,50.59
2023-04-24T18:51:18.699Z,50.65
2023-04-24T18:53:45.029Z,50.69
2023-04-24T18:56:12.999Z,50.96
2023-04-24T18:58:44.184Z,51.13
2023-04-24T19:01:10.571Z,51.27
2023-04-24T19:03:37.045Z,51.35
2023-04-24T19:06:03.410Z,51.47
2023-04-24T19:08:29.760Z,51.46
2023-04-24T19:10:56.095Z,51.46
2023-04-24T19:13:22.439Z,51.60
2023-04-24T19:15:48.798Z,51.44
2023-04-24T19:18:17.052Z,51.68
2023-04-24T19:20:44.091Z,51.77
2023-04-24T19:23:10.422Z,52.07
2023-04-24T19:25:36.788Z,52.05
2023-04-24T19:28:03.391Z,52.06
2023-04-24T19:30:29.799Z,51.93
2023-04-24T19:32:56.282Z,51.89
2023-04-24T19:35:22.714Z,51.95
2023-04-24T19:37:49.041Z,52.33
2023-04-24T19:40:15.471Z,52.25
2023-04-24T19:42:44.649Z,52.20
2023-04-24T19:45:12.207Z,52.51
2023-04-24T19:47:38.791Z,52.41
2023-04-24T19:50:05.589Z,52.28
2023-04-24T19:52:31.941Z,52.63
2023-04-24T19:54:58.347Z,52.42
2023-04-24T19:57:24.722Z,52.58
2023-04-24T19:59:51.195Z,52.45
2023-04-24T20:02:17.638Z,52.48
2023-04-24T20:04:44.423Z,52.46
2023-04-24T20:07:11.116Z,52.60
2023-04-24T20:09:37.474Z,52.44
2023-04-24T20:12:03.830Z,52.61
2023-04-24T20:14:30.304Z,52.78
2023-04-24T20:16:56.680Z,52.83
2023-04-24T20:19:23.344Z,52.91
2023-04-24T20:21:49.942Z,52.87
2023-04-24T20:24:16.467Z,53.02
2023-04-24T20:26:43.071Z,53.10
2023-04-24T20:29:09.467Z,53.33
2023-04-24T20:31:35.866Z,53.45
2023-04-24T20:34:02.461Z,53.12
2023-04-24T20:36:28.833Z,53.38
2023-04-24T20:38:56.966Z,53.49
2023-04-24T20:41:24.712Z,53.47
2023-04-24T20:43:51.117Z,53.51
2023-04-24T20:46:17.525Z,53.71
2023-04-24T20:48:43.923Z,53.60
2023-04-24T20:51:10.298Z,53.69
2023-04-24T20:53:36.626Z,53.52
2023-04-24T20:56:03.108Z,53.81
2023-04-24T20:58:29.459Z,53.53
2023-04-24T21:00:55.861Z,53.87
2023-04-24T21:03:22.374Z,53.93
2023-04-24T21:05:48.744Z,53.91
2023-04-24T21:08:15.108Z,53.97
2023-04-24T21:10:41.763Z,53.98
2023-04-24T21:13:08.136Z,53.78
2023-04-24T21:15:34.477Z,53.83
2023-04-24T21:18:01.093Z,54.05
2023-04-24T21:20:27.515Z,54.03
2023-04-24T21:22:53.853Z,54.10
2023-04-24T21:25:20.227Z,54.05
2023-04-24T21:27:46.628Z,53.82
2023-04-24T21:30:12.968Z,53.91
2023-04-24T21:32:40.454Z,53.95
2023-04-24T21:35:06.940Z,53.98
2023-04-24T21:37:36.772Z,53.87
2023-04-24T21:40:04.738Z,54.27
2023-04-24T21:42:31.287Z,54.12
2023-04-24T21:44:57.629Z,53.75
2023-04-24T21:47:24.009Z,54.08
2023-04-24T21:49:50.380Z,53.79
2023-04-24T21:52:16.723Z,53.88
2023-04-24T21:54:43.070Z,54.06
2023-04-24T21:57:09.653Z,54.00
2023-04-24T21:59:36.026Z,54.04
2023-04-24T22:02:02.467Z,53.82
2023-04-24T22:04:28.939Z,53.85
2023-04-24T22:06:55.667Z,53.66
2023-04-24T22:09:22.090Z,53.92
2023-04-24T22:11:48.526Z,53.84
2023-04-24T22:14:14.870Z,53.76
2023-04-24T22:16:41.859Z,53.98
2023-04-24T22:19:08.568Z,54.02
2023-04-24T22:21:34.904Z,53.95
2023-04-24T22:24:01.754Z,53.72
2023-04-24T22:26:28.094Z,53.79
2023-04-24T22:28:54.450Z,53.80
2023-04-24T22:31:20.834Z,53.81
2023-04-24T22:33:47.696Z,53.79
2023-04-24T22:36:14.289Z,53.75
2023-04-24T22:38:40.625Z,53.75
2023-04-24T22:41:06.980Z,54.05
2023-04-24T22:43:33.314Z,54.01
2023-04-24T22:45:59.674Z,53.80
2023-04-24T22:48:26.054Z,53.84
2023-04-24T22:50:52.516Z,53.74
2023-04-24T22:53:19.136Z,53.76
2023-04-24T22:55:45.468Z,53.75
2023-04-24T22:58:11.809Z,54.04
2023-04-24T23:00:38.247Z,53.93
2023-04-24T23:03:04.832Z,53.60
2023-04-24T23:05:31.245Z,53.84
2023-04-24T23:07:57.566Z,53.71
2023-04-24T23:10:23.896Z,53.89
2023-04-24T23:12:50.385Z,54.09
2023-04-24T23:15:16.722Z,53.84
2023-04-24T23:17:43.574Z,53.90
2023-04-24T23:20:14.095Z,53.81
2023-04-24T23:22:40.569Z,53.79
2023-04-24T23:25:08.515Z,53.86
2023-04-24T23:27:35.462Z,53.76
2023-04-24T23:30:01.860Z,53.90
2023-04-24T23:32:28.315Z,53.74
2023-04-24T23:34:54.707Z,53.71
2023-04-24T23:37:21.498Z,53.90
2023-04-24T23:39:47.872Z,53.74
2023-04-24T23:42:14.250Z,53.77
2023-04-24T23:44:40.612Z,53.64
2023-04-24T23:47:06.968Z,54.04
2023-04-24T23:49:33.337Z,53.75
2023-04-24T23:51:59.680Z,53.94
2023-04-24T23:54:26.394Z,53.75
2023-04-24T23:56:52.749Z,53.74
2023-04-24T23:59:21.467Z,53.67
